createdAt,value
2023-05-12T00:01:50.824Z,12.73
2023-05-12T00:04:21.817Z,12.27
2023-05-12T00:06:58.723Z,13.83
2023-05-12T00:09:31.606Z,17.50
2023-05-12T00:12:13.140Z,14.70
2023-05-12T00:14:51.897Z,16.47
2023-05-12T00:17:38.438Z,18.53
2023-05-12T00:20:17.963Z,22.20
2023-05-12T00:23:05.783Z,25.10
2023-05-12T00:25:45.143Z,22.70
2023-05-12T00:28:20.443Z,20.93
2023-05-12T00:31:03.295Z,18.27
2023-05-12T00:33:43.692Z,19.07
2023-05-12T00:36:22.468Z,18.80
2023-05-12T00:39:04.755Z,16.23
2023-05-12T00:41:45.483Z,13.93
2023-05-12T00:44:24.040Z,13.37
2023-05-12T00:47:04.540Z,14.23
2023-05-12T00:49:43.531Z,13.17
2023-05-12T00:52:17.160Z,11.87
2023-05-12T00:54:51.696Z,8.47
2023-05-12T00:57:27.984Z,8.63
2023-05-12T01:00:11.923Z,9.93
2023-05-12T01:02:50.702Z,8.47
2023-05-12T01:05:20.680Z,9.33
2023-05-12T01:08:07.109Z,10.03
2023-05-12T01:10:45.242Z,10.40
2023-05-12T01:13:16.589Z,9.83
2023-05-12T01:15:53.928Z,11.97
2023-05-12T01:18:35.239Z,12.53
2023-05-12T01:21:12.359Z,13.40
2023-05-12T01:23:52.924Z,14.80
2023-05-12T01:26:35.859Z,15.90
2023-05-12T01:29:15.259Z,17.07
2023-05-12T01:31:58.567Z,18.17
2023-05-12T01:34:38.667Z,17.07
2023-05-12T01:37:14.839Z,16.87
2023-05-12T01:39:43.675Z,18.47
2023-05-12T01:42:20.262Z,20.03
2023-05-12T01:45:01.361Z,19.73
2023-05-12T01:47:43.098Z,20.53
2023-05-12T01:50:25.298Z,20.20
2023-05-12T01:53:05.982Z,21.80
2023-05-12T01:55:49.342Z,23.60
2023-05-12T01:58:33.984Z,23.70
2023-05-12T02:01:03.440Z,26.20
2023-05-12T02:03:32.919Z,26.43
2023-05-12T02:06:00.871Z,23.90
2023-05-12T02:08:36.024Z,20.67
2023-05-12T02:11:16.417Z,25.33
2023-05-12T02:14:01.742Z,23.20
2023-05-12T02:16:39.757Z,20.77
2023-05-12T02:19:21.562Z,23.87
2023-05-12T02:22:00.706Z,20.07
2023-05-12T02:24:39.435Z,20.90
2023-05-12T02:27:15.883Z,19.77
2023-05-12T02:29:47.372Z,14.80
2023-05-12T02:32:28.028Z,18.77
2023-05-12T02:35:07.589Z,15.50
2023-05-12T02:37:56.627Z,12.50
2023-05-12T02:40:33.704Z,12.43
2023-05-12T02:43:15.440Z,9.73
2023-05-12T02:45:55.885Z,11.33
2023-05-12T02:48:31.376Z,9.30
2023-05-12T02:51:08.635Z,10.73
2023-05-12T02:53:44.103Z,11.20
2023-05-12T02:56:24.123Z,10.23
2023-05-12T02:59:03.759Z,10.70
2023-05-12T03:01:47.588Z,13.10
2023-05-12T03:04:25.665Z,11.27
2023-05-12T03:07:03.305Z,13.03
2023-05-12T03:09:43.264Z,12.07
2023-05-12T03:12:21.660Z,12.47
2023-05-12T03:15:10.396Z,13.07
2023-05-12T03:17:44.522Z,14.33
2023-05-12T03:20:14.693Z,14.17
2023-05-12T03:22:52.751Z,14.50
2023-05-12T03:25:29.380Z,13.03
2023-05-12T03:28:07.151Z,16.77
2023-05-12T03:30:44.716Z,13.30
2023-05-12T03:33:26.388Z,15.23
2023-05-12T03:36:07.151Z,12.33
2023-05-12T03:38:46.794Z,14.97
2023-05-12T03:41:24.790Z,13.97
2023-05-12T03:43:57.530Z,12.83
2023-05-12T03:46:36.234Z,12.27
2023-05-12T03:49:17.132Z,13.27
2023-05-12T03:51:54.352Z,14.37
2023-05-12T03:54:32.234Z,10.97
2023-05-12T03:57:14.837Z,10.17
2023-05-12T03:59:57.295Z,9.20
2023-05-12T04:02:43.070Z,8.77
2023-05-12T04:05:28.445Z,9.27
2023-05-12T04:08:10.800Z,8.57
2023-05-12T04:10:55.320Z,8.50
2023-05-12T04:13:36.930Z,7.47
2023-05-12T04:16:18.317Z,6.63
2023-05-12T04:18:55.428Z,6.50
2023-05-12T04:21:37.456Z,6.43
2023-05-12T04:24:11.670Z,5.80
2023-05-12T04:26:51.612Z,6.27
2023-05-12T04:29:32.542Z,4.77
2023-05-12T04:32:12.668Z,4.03
2023-05-12T04:34:50.353Z,4.90
2023-05-12T04:37:30.855Z,4.27
2023-05-12T04:40:10.127Z,6.03
2023-05-12T04:42:50.422Z,6.80
2023-05-12T04:45:29.454Z,4.40
2023-05-12T04:48:05.791Z,5.73
2023-05-12T04:50:44.382Z,4.93
2023-05-12T04:53:23.105Z,6.20
2023-05-12T04:55:56.944Z,3.67
2023-05-12T04:58:29.479Z,3.93
2023-05-12T05:01:00.079Z,4.30
2023-05-12T05:03:40.115Z,4.40
2023-05-12T05:06:19.096Z,3.53
2023-05-12T05:08:55.756Z,4.07
2023-05-12T05:11:33.689Z,7.23
2023-05-12T05:14:14.896Z,5.00
2023-05-12T05:16:56.390Z,7.30
2023-05-12T05:19:55.085Z,7.57
2023-05-12T05:22:35.233Z,5.03
2023-05-12T05:25:15.282Z,5.63
2023-05-12T05:27:54.306Z,5.53
2023-05-12T05:30:36.810Z,3.73
2023-05-12T05:33:18.731Z,6.30
2023-05-12T05:36:02.278Z,3.43
2023-05-12T05:38:43.753Z,4.13
2023-05-12T05:41:24.802Z,4.03
2023-05-12T05:44:07.741Z,5.23
2023-05-12T05:46:44.371Z,6.30
2023-05-12T05:49:24.167Z,5.30
2023-05-12T05:52:04.418Z,4.13
2023-05-12T05:54:38.929Z,3.93
2023-05-12T05:57:16.856Z,4.67
2023-05-12T05:59:55.219Z,3.20
2023-05-12T06:02:35.885Z,4.50
2023-05-12T06:05:19.242Z,7.30
2023-05-12T06:07:58.054Z,4.33
2023-05-12T06:10:45.155Z,5.17
2023-05-12T06:13:30.475Z,3.47
2023-05-12T06:16:10.493Z,4.10
2023-05-12T06:18:55.008Z,4.53
2023-05-12T06:21:40.022Z,5.07
2023-05-12T06:24:20.356Z,3.40
2023-05-12T06:27:00.097Z,5.30
2023-05-12T06:29:36.148Z,4.17
2023-05-12T06:32:17.631Z,5.27
2023-05-12T06:34:56.884Z,3.70
2023-05-12T06:37:33.566Z,4.53
2023-05-12T06:40:13.558Z,7.87
2023-05-12T06:42:51.985Z,3.93
2023-05-12T06:45:39.397Z,4.67
2023-05-12T06:48:25.245Z,4.90
2023-05-12T06:51:10.066Z,6.70
2023-05-12T06:53:49.857Z,6.13
2023-05-12T06:56:32.084Z,5.93
2023-05-12T06:59:10.904Z,5.23
2023-05-12T07:01:54.251Z,5.37
2023-05-12T07:04:32.494Z,4.30
2023-05-12T07:07:04.742Z,4.23
2023-05-12T07:09:49.303Z,4.07
2023-05-12T07:12:32.376Z,4.00
2023-05-12T07:15:15.876Z,4.87
2023-05-12T07:17:59.039Z,5.83
2023-05-12T07:20:39.726Z,4.80
2023-05-12T07:23:12.698Z,3.80
2023-05-12T07:25:45.370Z,3.97
2023-05-12T07:28:28.586Z,4.57
2023-05-12T07:31:11.610Z,3.97
2023-05-12T07:33:55.912Z,5.23
2023-05-12T07:36:43.966Z,4.23
2023-05-12T07:39:25.668Z,4.73
2023-05-12T07:42:03.902Z,3.30
2023-05-12T07:44:43.947Z,4.67
2023-05-12T07:47:17.679Z,4.23
2023-05-12T07:50:00.989Z,3.63
2023-05-12T07:52:47.753Z,4.33
2023-05-12T07:55:28.924Z,6.20
2023-05-12T07:58:15.963Z,4.73
2023-05-12T08:00:51.055Z,5.17
2023-05-12T08:03:39.040Z,4.17
2023-05-12T08:06:22.357Z,5.60
2023-05-12T08:09:03.967Z,7.40
2023-05-12T08:11:43.250Z,5.47
2023-05-12T08:14:27.132Z,3.83
2023-05-12T08:17:06.698Z,5.40
2023-05-12T08:19:41.915Z,4.10
2023-05-12T08:22:18.084Z,3.63
2023-05-12T08:24:56.381Z,5.83
2023-05-12T08:27:38.100Z,3.77
2023-05-12T08:30:26.025Z,9.30
2023-05-12T08:33:09.074Z,4.70
2023-05-12T08:35:44.025Z,7.33
2023-05-12T08:38:24.541Z,5.00
2023-05-12T08:41:23.348Z,4.43
2023-05-12T08:44:01.132Z,5.10
2023-05-12T08:46:44.514Z,3.57
2023-05-12T08:49:25.837Z,3.77
2023-05-12T08:52:03.320Z,5.23
2023-05-12T08:54:48.673Z,5.83
2023-05-12T08:57:36.949Z,4.77
2023-05-12T09:00:22.621Z,4.77
2023-05-12T09:03:00.422Z,6.47
2023-05-12T09:05:45.821Z,4.00
2023-05-12T09:08:30.932Z,5.77
2023-05-12T09:11:13.811Z,4.77
2023-05-12T09:14:01.373Z,5.20
2023-05-12T09:16:48.686Z,5.73
2023-05-12T09:19:23.056Z,6.13
2023-05-12T09:22:03.479Z,6.73
2023-05-12T09:24:39.813Z,8.43
2023-05-12T09:27:30.456Z,5.10
2023-05-12T09:30:14.941Z,7.03
2023-05-12T09:32:54.121Z,4.20
2023-05-12T09:35:31.787Z,3.50
2023-05-12T09:38:14.795Z,6.53
2023-05-12T09:40:59.709Z,5.37
2023-05-12T09:43:47.460Z,6.27
2023-05-12T09:46:29.132Z,7.27
2023-05-12T09:49:03.774Z,6.67
2023-05-12T09:51:37.468Z,3.83
2023-05-12T09:54:14.063Z,3.73
2023-05-12T09:57:02.505Z,5.03
2023-05-12T09:59:54.781Z,4.77
2023-05-12T10:02:30.246Z,4.73
2023-05-12T10:05:21.050Z,7.13
2023-05-12T10:08:04.756Z,4.50
2023-05-12T10:10:42.988Z,4.97
2023-05-12T10:13:22.409Z,3.07
2023-05-12T10:16:08.338Z,7.17
2023-05-12T10:18:48.570Z,3.73
2023-05-12T10:21:33.320Z,11.70
2023-05-12T10:24:17.610Z,4.87
2023-05-12T10:26:59.687Z,4.23
2023-05-12T10:29:42.834Z,4.03
2023-05-12T10:32:18.662Z,4.70
2023-05-12T10:35:09.076Z,3.03
2023-05-12T10:37:50.838Z,6.87
2023-05-12T10:40:32.000Z,8.67
2023-05-12T10:43:26.885Z,4.37
2023-05-12T10:46:08.815Z,3.73
2023-05-12T10:49:00.755Z,4.70
2023-05-12T10:51:49.663Z,6.73
2023-05-12T10:54:41.403Z,4.53
2023-05-12T10:57:21.593Z,5.83
2023-05-12T11:00:06.056Z,4.73
2023-05-12T11:02:52.029Z,3.63
2023-05-12T11:05:37.653Z,7.37
2023-05-12T11:08:19.825Z,4.67
2023-05-12T11:10:59.996Z,6.97
2023-05-12T11:13:39.446Z,6.37
2023-05-12T11:16:22.294Z,3.20
2023-05-12T11:19:02.025Z,5.13
2023-05-12T11:21:42.797Z,7.73
2023-05-12T11:24:21.314Z,6.40
2023-05-12T11:26:57.495Z,6.53
2023-05-12T11:29:35.588Z,6.20
2023-05-12T11:32:16.472Z,7.17
2023-05-12T11:35:09.744Z,5.07
2023-05-12T11:37:59.611Z,5.57
2023-05-12T11:40:33.523Z,5.03
2023-05-12T11:43:10.856Z,5.13
2023-05-12T11:45:50.367Z,5.03
2023-05-12T11:48:34.686Z,6.57
2023-05-12T11:51:11.705Z,4.30
2023-05-12T11:53:53.022Z,5.07
2023-05-12T11:56:36.871Z,3.93
2023-05-12T11:59:10.553Z,4.93
2023-05-12T12:01:53.105Z,5.70
2023-05-12T12:04:35.789Z,6.80
2023-05-12T12:07:30.163Z,5.87
2023-05-12T12:10:16.101Z,5.37
2023-05-12T12:12:55.782Z,5.20
2023-05-12T12:15:35.594Z,5.40
2023-05-12T12:18:19.505Z,5.57
2023-05-12T12:20:58.973Z,6.63
2023-05-12T12:23:44.096Z,4.97
2023-05-12T12:26:38.905Z,8.67
2023-05-12T12:29:20.816Z,6.47
2023-05-12T12:31:57.638Z,6.03
2023-05-12T12:34:37.346Z,5.80
2023-05-12T12:37:17.021Z,4.20
2023-05-12T12:39:55.377Z,4.67
2023-05-12T12:42:41.372Z,4.50
2023-05-12T12:45:20.661Z,4.57
2023-05-12T12:48:09.989Z,7.23
2023-05-12T12:50:50.540Z,6.60
2023-05-12T12:53:35.632Z,6.97
2023-05-12T12:56:13.836Z,4.90
2023-05-12T12:58:59.015Z,5.23
2023-05-12T13:01:40.762Z,4.70
2023-05-12T13:04:22.981Z,4.37
2023-05-12T13:07:07.260Z,5.90
2023-05-12T13:09:47.531Z,3.40
2023-05-12T13:12:31.412Z,5.23
2023-05-12T13:15:13.856Z,4.93
2023-05-12T13:17:52.066Z,6.13
2023-05-12T13:20:35.189Z,4.50
2023-05-12T13:23:08.386Z,3.93
2023-05-12T13:25:48.853Z,4.67
2023-05-12T13:28:24.791Z,3.50
2023-05-12T13:31:10.104Z,7.47
2023-05-12T13:33:53.129Z,5.37
2023-05-12T13:36:32.206Z,6.23
2023-05-12T13:39:11.388Z,7.80
2023-05-12T13:41:45.014Z,5.27
2023-05-12T13:44:15.967Z,5.10
2023-05-12T13:46:54.672Z,4.10
2023-05-12T13:49:33.744Z,4.63
2023-05-12T13:52:11.981Z,4.20
2023-05-12T13:54:56.052Z,4.33
2023-05-12T13:57:34.491Z,4.60
2023-05-12T14:00:17.557Z,6.17
2023-05-12T14:03:01.741Z,4.67
2023-05-12T14:05:38.430Z,6.20
2023-05-12T14:08:12.135Z,5.40
2023-05-12T14:10:53.162Z,4.00
2023-05-12T14:13:33.025Z,4.83
2023-05-12T14:16:18.648Z,4.70
2023-05-12T14:18:56.869Z,7.30
2023-05-12T14:21:41.221Z,4.77
2023-05-12T14:24:21.513Z,4.30
2023-05-12T14:27:04.535Z,6.47
2023-05-12T14:29:41.146Z,4.47
2023-05-12T14:32:19.532Z,5.23
2023-05-12T14:34:55.119Z,6.77
2023-05-12T14:37:28.111Z,6.60
2023-05-12T14:40:10.389Z,3.87
2023-05-12T14:42:48.917Z,5.50
2023-05-12T14:45:26.522Z,5.60
2023-05-12T14:48:10.189Z,7.63
2023-05-12T14:50:45.916Z,4.33
2023-05-12T14:53:19.998Z,6.23
2023-05-12T14:55:52.627Z,6.43
2023-05-12T14:58:28.428Z,5.63
2023-05-12T15:01:06.349Z,4.13
2023-05-12T15:03:46.689Z,6.97
2023-05-12T15:06:29.027Z,4.80
2023-05-12T15:09:10.721Z,3.10
2023-05-12T15:11:51.612Z,4.63
2023-05-12T15:14:25.898Z,3.83
2023-05-12T15:17:06.657Z,4.60
2023-05-12T15:19:46.171Z,4.27
2023-05-12T15:22:31.417Z,3.60
2023-05-12T15:25:12.666Z,5.63
2023-05-12T15:27:48.336Z,5.03
2023-05-12T15:30:22.862Z,5.10
2023-05-12T15:32:59.919Z,6.83
2023-05-12T15:35:40.629Z,4.43
2023-05-12T15:38:27.778Z,5.17
2023-05-12T15:41:01.763Z,6.33
2023-05-12T15:43:31.658Z,8.57
2023-05-12T15:46:04.597Z,15.93
2023-05-12T15:48:42.265Z,8.33
2023-05-12T15:51:20.397Z,7.77
2023-05-12T15:54:03.623Z,13.30
2023-05-12T15:56:39.152Z,10.23
2023-05-12T15:59:13.356Z,7.47
2023-05-12T16:01:44.298Z,9.60
2023-05-12T16:04:29.669Z,10.83
2023-05-12T16:07:09.805Z,10.27
2023-05-12T16:09:50.470Z,10.87
2023-05-12T16:12:27.244Z,6.30
2023-05-12T16:15:11.437Z,11.03
2023-05-12T16:17:51.460Z,10.20
2023-05-12T16:20:24.530Z,8.87
2023-05-12T16:22:53.486Z,10.60
2023-05-12T16:25:24.705Z,9.13
2023-05-12T16:28:00.559Z,12.87
2023-05-12T16:30:39.797Z,14.10
2023-05-12T16:33:20.377Z,17.80
2023-05-12T16:35:54.592Z,11.53
2023-05-12T16:38:32.275Z,14.00
2023-05-12T16:41:13.896Z,9.53
2023-05-12T16:44:01.942Z,10.53
2023-05-12T16:46:41.417Z,9.00
2023-05-12T16:49:23.275Z,7.13
2023-05-12T16:52:02.118Z,7.77
2023-05-12T16:54:46.306Z,10.67
2023-05-12T16:57:31.875Z,10.70
2023-05-12T17:00:14.913Z,8.87
2023-05-12T17:02:53.710Z,9.30
2023-05-12T17:05:38.042Z,10.53
2023-05-12T17:08:21.937Z,15.10
2023-05-12T17:11:09.664Z,9.20
2023-05-12T17:13:50.678Z,9.63
2023-05-12T17:16:34.104Z,9.07
2023-05-12T17:19:14.496Z,11.53
2023-05-12T17:21:52.848Z,10.27
2023-05-12T17:24:34.558Z,10.83
2023-05-12T17:27:08.775Z,9.07
2023-05-12T17:29:54.772Z,10.50
2023-05-12T17:32:25.208Z,12.33
2023-05-12T17:35:06.760Z,9.43
2023-05-12T17:37:47.969Z,8.53
2023-05-12T17:40:28.327Z,11.37
2023-05-12T17:43:11.933Z,9.23
2023-05-12T17:45:46.281Z,8.70
2023-05-12T17:48:30.985Z,10.47
2023-05-12T17:51:09.288Z,10.50
2023-05-12T17:53:51.700Z,8.20
2023-05-12T17:56:29.856Z,9.50
2023-05-12T17:59:09.995Z,10.93
2023-05-12T18:01:53.605Z,9.77
2023-05-12T18:04:37.151Z,9.27
2023-05-12T18:07:23.280Z,9.53
2023-05-12T18:10:01.344Z,10.80
2023-05-12T18:12:41.620Z,10.03
2023-05-12T18:15:28.588Z,9.07
2023-05-12T18:18:10.345Z,12.13
2023-05-12T18:20:59.484Z,10.13
2023-05-12T18:23:33.905Z,8.70
2023-05-12T18:26:08.913Z,8.70
2023-05-12T18:28:54.277Z,10.47
2023-05-12T18:31:44.109Z,8.10
2023-05-12T18:34:25.373Z,9.47
2023-05-12T18:37:04.915Z,10.17
2023-05-12T18:39:43.171Z,10.57
2023-05-12T18:42:18.888Z,10.43
2023-05-12T18:44:54.573Z,9.97
2023-05-12T18:47:33.266Z,9.90
2023-05-12T18:50:16.074Z,10.37
2023-05-12T18:52:59.284Z,9.17
2023-05-12T18:55:28.661Z,13.27
2023-05-12T18:57:58.405Z,9.87
2023-05-12T19:00:33.449Z,10.43
2023-05-12T19:03:13.129Z,9.83
2023-05-12T19:05:52.508Z,9.20
2023-05-12T19:08:32.804Z,8.70
2023-05-12T19:11:09.716Z,10.47
2023-05-12T19:13:47.457Z,10.87
2023-05-12T19:16:25.924Z,10.10
2023-05-12T19:19:06.504Z,10.57
2023-05-12T19:21:44.058Z,10.23
2023-05-12T19:24:26.766Z,10.20
2023-05-12T19:27:11.956Z,12.47
2023-05-12T19:29:48.558Z,11.90
2023-05-12T19:32:35.574Z,10.80
2023-05-12T19:35:15.681Z,10.93
2023-05-12T19:37:55.765Z,10.07
2023-05-12T19:40:39.227Z,10.53
2023-05-12T19:43:17.642Z,9.53
2023-05-12T19:45:58.879Z,9.93
2023-05-12T19:48:37.354Z,13.13
2023-05-12T19:51:18.301Z,10.47
2023-05-12T19:54:04.963Z,11.37
2023-05-12T19:56:50.217Z,11.60
2023-05-12T19:59:24.491Z,11.47
2023-05-12T20:02:06.373Z,10.13
2023-05-12T20:04:49.212Z,11.40
2023-05-12T20:07:29.950Z,12.13
2023-05-12T20:10:02.198Z,11.10
2023-05-12T20:12:31.791Z,9.77
2023-05-12T20:14:59.697Z,11.40
2023-05-12T20:17:37.200Z,11.10
2023-05-12T20:20:14.695Z,12.83
2023-05-12T20:22:53.496Z,11.93
2023-05-12T20:25:33.089Z,11.93
2023-05-12T20:28:17.281Z,11.53
2023-05-12T20:30:57.220Z,11.47
2023-05-12T20:33:41.353Z,10.60
2023-05-12T20:36:15.076Z,9.93
2023-05-12T20:38:53.950Z,15.07
2023-05-12T20:41:33.953Z,13.00
2023-05-12T20:44:15.848Z,11.43
2023-05-12T20:46:56.012Z,12.67
2023-05-12T20:49:33.569Z,11.90
2023-05-12T20:52:09.100Z,11.07
2023-05-12T20:54:57.164Z,10.63
2023-05-12T20:57:31.206Z,12.10
2023-05-12T21:00:14.508Z,14.43
2023-05-12T21:02:52.143Z,13.30
2023-05-12T21:05:41.636Z,12.57
2023-05-12T21:08:25.663Z,12.90
2023-05-12T21:11:04.308Z,13.83
2023-05-12T21:13:41.239Z,11.90
2023-05-12T21:16:25.887Z,12.57
2023-05-12T21:19:02.080Z,13.97
2023-05-12T21:21:31.656Z,12.77
2023-05-12T21:24:06.846Z,12.00
2023-05-12T21:26:38.261Z,12.73
2023-05-12T21:29:06.702Z,13.63
2023-05-12T21:31:47.355Z,12.97
2023-05-12T21:34:23.364Z,12.77
2023-05-12T21:37:06.285Z,12.00
2023-05-12T21:39:50.476Z,13.37
2023-05-12T21:42:30.100Z,14.20
2023-05-12T21:45:03.823Z,13.47
2023-05-12T21:47:50.036Z,13.20
2023-05-12T21:50:31.316Z,13.77
2023-05-12T21:53:09.399Z,15.33
2023-05-12T21:55:53.462Z,14.73
2023-05-12T21:58:28.182Z,13.40
2023-05-12T22:01:03.944Z,12.43
2023-05-12T22:03:33.843Z,15.80
2023-05-12T22:06:03.783Z,13.60
2023-05-12T22:08:34.367Z,15.23
2023-05-12T22:11:12.647Z,18.60
2023-05-12T22:13:52.551Z,12.77
2023-05-12T22:16:40.862Z,12.60
2023-05-12T22:19:28.130Z,12.57
2023-05-12T22:22:13.444Z,18.50
2023-05-12T22:24:52.890Z,12.43
2023-05-12T22:27:35.164Z,13.23
2023-05-12T22:30:10.653Z,16.97
2023-05-12T22:32:49.439Z,15.20
2023-05-12T22:35:30.497Z,13.40
2023-05-12T22:38:08.633Z,14.70
2023-05-12T22:40:50.646Z,12.03
2023-05-12T22:43:35.274Z,15.43
2023-05-12T22:46:13.646Z,13.47
2023-05-12T22:48:53.601Z,14.33
2023-05-12T22:51:29.222Z,17.47
2023-05-12T22:54:09.065Z,13.23
2023-05-12T22:56:47.902Z,12.13
2023-05-12T22:59:25.523Z,15.33
2023-05-12T23:02:11.615Z,14.77
2023-05-12T23:04:51.009Z,13.93
2023-05-12T23:07:29.485Z,15.17
2023-05-12T23:10:07.011Z,13.20
2023-05-12T23:12:47.007Z,13.53
2023-05-12T23:15:31.743Z,13.33
2023-05-12T23:18:10.546Z,14.27
2023-05-12T23:20:43.412Z,12.07
2023-05-12T23:23:24.590Z,13.53
2023-05-12T23:26:04.134Z,16.00
2023-05-12T23:28:48.755Z,12.63
2023-05-12T23:31:26.608Z,13.17
2023-05-12T23:34:05.700Z,13.10
2023-05-12T23:36:44.122Z,13.00
2023-05-12T23:39:21.939Z,12.10
2023-05-12T23:42:07.905Z,14.40
2023-05-12T23:44:54.032Z,14.07
2023-05-12T23:47:37.617Z,13.07
2023-05-12T23:50:11.417Z,12.73
2023-05-12T23:52:44.248Z,15.60
2023-05-12T23:55:20.865Z,14.40
2023-05-12T23:57:59.541Z,14.13
